Time;durP1;ratioP1;P1;durP2;ratioP2;P2;SDS_P1;SDS_P2;PMS_P1;PMS_P2;Temp;Humidity;BMP_temperature;BMP_pressure;BME280_temperature;BME280_humidity;BME280_pressure;Samples;Min_cycle;Max_cycle;Signal;HPM_P1;HPM_P2
2022/06/09 00:01:06;;;;;;;0.00;0.00;;;14.70;99.90;;;;;;5072025;28;20036;-80
2022/06/09 00:04:02;;;;;;;0.10;0.10;;;14.60;99.90;;;;;;5072357;28;20064;-80
2022/06/09 00:06:36;;;;;;;0.00;0.00;;;14.70;99.90;;;;;;5072160;28;20037;-80
2022/06/09 00:09:04;;;;;;;0.05;0.05;;;14.60;99.90;;;;;;5088760;28;20033;-79
2022/06/09 00:11:34;;;;;;;0.20;0.17;;;14.60;99.90;;;;;;5072422;28;20037;-79
2022/06/09 00:14:01;;;;;;;0.17;0.13;;;14.60;99.90;;;;;;5072403;28;20037;-80
2022/06/09 00:16:28;;;;;;;0.10;0.10;;;14.60;99.90;;;;;;5071625;28;20124;-79
2022/06/09 00:18:55;;;;;;;0.10;0.10;;;14.60;99.90;;;;;;5088468;28;20124;-80
2022/06/09 00:21:23;;;;;;;0.32;0.30;;;14.60;99.90;;;;;;5071653;28;20041;-80
2022/06/09 00:23:50;;;;;;;0.17;0.17;;;14.60;99.90;;;;;;5072059;28;20124;-80
2022/06/09 00:26:17;;;;;;;0.10;0.10;;;14.60;99.90;;;;;;5071762;28;20041;-80
2022/06/09 00:28:43;;;;;;;0.10;0.10;;;14.60;99.90;;;;;;5088590;28;20098;-80
2022/06/09 00:31:10;;;;;;;0.10;0.10;;;14.60;99.90;;;;;;5071391;28;20120;-80
2022/06/09 00:33:37;;;;;;;0.25;0.20;;;14.60;99.90;;;;;;5072350;28;20098;-80
2022/06/09 00:36:04;;;;;;;0.05;0.05;;;14.60;99.90;;;;;;5071775;28;20044;-80
2022/06/09 00:38:30;;;;;;;0.03;0.03;;;14.60;99.90;;;;;;5071202;28;20052;-80
2022/06/09 00:40:59;;;;;;;0.00;0.00;;;14.60;99.90;;;;;;5088298;28;20044;-80
2022/06/09 00:43:27;;;;;;;0.15;0.13;;;14.60;99.90;;;;;;5071891;28;20037;-80
2022/06/09 00:46:04;;;;;;;0.20;0.05;;;14.60;99.90;;;;;;5054853;28;20513;-80
2022/06/09 00:48:44;;;;;;;0.55;0.20;;;14.50;99.90;;;;;;5086592;28;20050;-79
2022/06/09 00:51:34;;;;;;;0.85;0.25;;;14.60;99.90;;;;;;5087942;28;20768;-80
2022/06/09 00:54:21;;;;;;;0.05;0.05;;;14.50;99.90;;;;;;5087999;28;20448;-80
2022/06/09 00:56:57;;;;;;;0.10;0.10;;;14.50;99.90;;;;;;5071262;28;20075;-79
2022/06/09 00:59:28;;;;;;;0.10;0.10;;;14.50;99.90;;;;;;5071220;28;20048;-79
2022/06/09 01:01:57;;;;;;;0.35;0.20;;;14.50;99.90;;;;;;5070890;28;20861;-79
2022/06/09 01:04:25;;;;;;;0.10;0.10;;;14.40;99.90;;;;;;5087255;28;20036;-79
2022/06/09 01:07:02;;;;;;;0.08;0.08;;;14.40;99.90;;;;;;5071258;28;20045;-80
2022/06/09 01:09:31;;;;;;;0.10;0.10;;;14.40;99.90;;;;;;5087518;28;20081;-79
2022/06/09 01:11:58;;;;;;;0.10;0.10;;;14.40;99.90;;;;;;5070762;28;20033;-80
2022/06/09 01:14:28;;;;;;;0.00;0.00;;;14.30;99.90;;;;;;5087262;28;20478;-79
2022/06/09 01:17:07;;;;;;;0.10;0.10;;;14.30;99.90;;;;;;5071096;28;20041;-80
2022/06/09 01:20:03;;;;;;;0.00;0.00;;;14.30;99.90;;;;;;5087053;28;20052;-79
2022/06/09 01:22:48;;;;;;;0.00;0.00;;;14.30;99.90;;;;;;5070258;28;20048;-80
2022/06/09 01:25:40;;;;;;;0.10;0.10;;;14.30;99.90;;;;;;5087530;28;20041;-80
2022/06/09 01:28:42;;;;;;;0.25;0.17;;;14.20;99.90;;;;;;5070579;28;20049;-79
2022/06/09 01:32:02;;;;;;;0.20;0.10;;;14.20;99.90;;;;;;5087143;28;20118;-80
2022/06/09 01:34:31;;;;;;;0.20;0.20;;;14.20;99.90;;;;;;5054281;28;20068;-80
2022/06/09 01:37:05;;;;;;;0.03;0.03;;;14.20;99.90;;;;;;5087250;28;20033;-80
2022/06/09 01:39:54;;;;;;;0.00;0.00;;;14.20;99.90;;;;;;5086582;28;20045;-80
2022/06/09 01:42:39;;;;;;;0.20;0.13;;;14.10;99.90;;;;;;5086897;28;20124;-79
2022/06/09 01:45:17;;;;;;;0.10;0.10;;;14.10;99.90;;;;;;5086561;28;20382;-79
2022/06/09 01:48:04;;;;;;;0.10;0.10;;;14.10;99.90;;;;;;5086812;28;20041;-80
2022/06/09 01:50:37;;;;;;;0.10;0.10;;;14.10;99.90;;;;;;5069639;28;20080;-80
2022/06/09 01:53:10;;;;;;;0.00;0.00;;;14.10;99.90;;;;;;5070140;28;20043;-80
2022/06/09 01:55:42;;;;;;;0.20;0.20;;;14.10;99.90;;;;;;5070120;28;20041;-80
2022/06/09 01:58:11;;;;;;;0.10;0.10;;;14.10;99.90;;;;;;5086648;28;20537;-79
2022/06/09 02:00:38;;;;;;;0.10;0.10;;;14.10;99.90;;;;;;5069766;28;20405;-80
2022/06/09 02:03:14;;;;;;;0.00;0.00;;;14.10;99.90;;;;;;5053579;28;20052;-80
2022/06/09 02:05:44;;;;;;;;;;;14.10;99.90;;;;;;5070308;28;20406;-80
2022/06/09 02:08:15;;;;;;;0.00;0.00;;;14.10;99.90;;;;;;5086294;28;19927;-79
2022/06/09 02:10:46;;;;;;;0.15;0.10;;;14.10;99.90;;;;;;5069658;28;20048;-80
2022/06/09 02:13:20;;;;;;;0.10;0.10;;;14.10;99.90;;;;;;5069572;28;20041;-80
2022/06/09 02:15:53;;;;;;;0.30;0.28;;;14.10;99.90;;;;;;5069380;28;20482;-80
2022/06/09 02:18:24;;;;;;;0.00;0.00;;;14.10;99.90;;;;;;5069353;28;20459;-80
2022/06/09 02:20:59;;;;;;;0.03;0.03;;;14.10;99.90;;;;;;5069548;28;20106;-79
2022/06/09 02:23:26;;;;;;;0.13;0.05;;;14.10;99.90;;;;;;5086035;28;20098;-79
2022/06/09 02:25:52;;;;;;;0.20;0.20;;;14.10;99.90;;;;;;5069406;28;20052;-79
2022/06/09 02:28:19;;;;;;;0.75;0.35;;;14.10;99.90;;;;;;5085730;28;20124;-79
2022/06/09 02:30:46;;;;;;;0.08;0.08;;;14.10;99.90;;;;;;5085971;28;20062;-80
2022/06/09 02:33:13;;;;;;;0.10;0.10;;;14.10;99.90;;;;;;5086260;28;20037;-80
2022/06/09 02:35:41;;;;;;;0.20;0.20;;;14.00;99.90;;;;;;5085995;28;20068;-80
2022/06/09 02:38:08;;;;;;;0.08;0.08;;;14.00;99.90;;;;;;5053572;28;20460;-80
2022/06/09 02:40:35;;;;;;;0.20;0.10;;;14.00;99.90;;;;;;5069359;28;20055;-80
2022/06/09 02:43:02;;;;;;;0.20;0.10;;;13.90;99.90;;;;;;5085759;28;20041;-79
2022/06/09 02:45:29;;;;;;;0.45;0.20;;;14.00;99.90;;;;;;5052732;28;20049;-79
2022/06/09 02:47:56;;;;;;;0.10;0.10;;;13.90;99.90;;;;;;5086196;28;20037;-80
2022/06/09 02:50:23;;;;;;;0.00;0.00;;;13.90;99.90;;;;;;5085646;28;20413;-80
2022/06/09 02:52:50;;;;;;;0.00;0.00;;;13.90;99.90;;;;;;5069050;28;20081;-80
2022/06/09 02:55:17;;;;;;;0.30;0.30;;;13.80;99.90;;;;;;5069144;28;20045;-79
2022/06/09 02:57:43;;;;;;;0.13;0.13;;;13.80;99.90;;;;;;5085028;28;20466;-79
2022/06/09 03:00:14;;;;;;;0.00;0.00;;;13.80;99.90;;;;;;5052133;28;20171;-79
2022/06/09 03:03:03;;;;;;;0.20;0.20;;;13.80;99.90;;;;;;5068980;28;20041;-79
2022/06/09 03:05:32;;;;;;;0.10;0.10;;;13.80;99.90;;;;;;5078908;28;20405;-80
2022/06/09 03:07:59;;;;;;;0.08;0.08;;;13.80;99.90;;;;;;5068724;28;20037;-80
2022/06/09 03:10:25;;;;;;;0.05;0.05;;;13.80;99.90;;;;;;5070469;28;20033;-81
2022/06/09 03:12:53;;;;;;;0.47;0.30;;;13.80;99.90;;;;;;5056327;28;20386;-80
2022/06/09 03:15:22;;;;;;;0.10;0.10;;;13.80;99.90;;;;;;5073213;28;20047;-80
2022/06/09 03:17:50;;;;;;;0.30;0.20;;;13.80;99.90;;;;;;5089081;28;20045;-80
2022/06/09 03:20:23;;;;;;;0.30;0.20;;;13.80;99.90;;;;;;5072774;28;20079;-80
2022/06/09 03:22:50;;;;;;;0.15;0.15;;;13.80;99.90;;;;;;5072661;28;20041;-79
2022/06/09 03:25:17;;;;;;;0.20;0.20;;;13.80;99.90;;;;;;5089492;28;20131;-80
2022/06/09 03:27:43;;;;;;;0.20;0.20;;;13.80;99.90;;;;;;5089466;28;20076;-80
2022/06/09 03:30:11;;;;;;;0.20;0.20;;;13.80;99.90;;;;;;5089310;28;20554;-80
2022/06/09 03:32:37;;;;;;;0.22;0.20;;;13.80;99.90;;;;;;5089214;28;20049;-80
2022/06/09 03:35:05;;;;;;;0.15;0.15;;;13.80;99.90;;;;;;5056021;28;20040;-80
2022/06/09 03:37:32;;;;;;;0.00;0.00;;;13.80;99.90;;;;;;5056299;28;20052;-79
2022/06/09 03:39:59;;;;;;;0.10;0.10;;;13.80;99.90;;;;;;5072719;28;20509;-81
2022/06/09 03:42:26;;;;;;;0.10;0.10;;;13.80;99.90;;;;;;5072824;28;20049;-80
2022/06/09 03:44:52;;;;;;;0.25;0.20;;;13.90;99.90;;;;;;5055794;28;20123;-80
2022/06/09 03:47:19;;;;;;;0.05;0.05;;;13.80;99.90;;;;;;5055993;28;20044;-80
2022/06/09 03:49:46;;;;;;;0.00;0.00;;;13.90;99.90;;;;;;5074732;28;20052;-80
2022/06/09 03:52:12;;;;;;;0.20;0.13;;;13.80;99.90;;;;;;5075804;28;20059;-80
2022/06/09 03:54:39;;;;;;;0.10;0.10;;;13.90;99.90;;;;;;5075609;28;20044;-80
2022/06/09 03:57:06;;;;;;;0.17;0.10;;;13.90;99.90;;;;;;5075904;28;20081;-80
2022/06/09 03:59:33;;;;;;;0.08;0.08;;;13.90;99.90;;;;;;5076101;28;20044;-80
2022/06/09 04:01:59;;;;;;;0.22;0.22;;;13.90;99.90;;;;;;5076072;28;20409;-80
2022/06/09 04:04:26;;;;;;;0.08;0.08;;;13.90;99.90;;;;;;5075817;28;20045;-80
2022/06/09 04:06:53;;;;;;;0.20;0.20;;;13.90;99.90;;;;;;5075010;28;20107;-80
2022/06/09 04:09:20;;;;;;;0.10;0.10;;;13.90;99.90;;;;;;5058971;28;20048;-79
2022/06/09 04:11:47;;;;;;;0.25;0.13;;;13.90;99.90;;;;;;5075321;28;20128;-80
2022/06/09 04:14:14;;;;;;;0.45;0.35;;;13.90;99.90;;;;;;5059173;28;20090;-81
2022/06/09 04:16:44;;;;;;;0.52;0.13;;;13.90;99.90;;;;;;5075487;28;20492;-81
2022/06/09 04:19:14;;;;;;;0.10;0.10;;;13.90;99.90;;;;;;5075686;28;20044;-80
2022/06/09 04:21:42;;;;;;;0.17;0.17;;;13.90;99.90;;;;;;5074626;28;20040;-80
2022/06/09 04:24:10;;;;;;;0.15;0.10;;;14.00;99.90;;;;;;5092059;28;20059;-80
2022/06/09 04:26:40;;;;;;;1.00;0.90;;;13.90;99.90;;;;;;5091901;28;20044;-80
2022/06/09 04:29:11;;;;;;;0.22;0.20;;;14.00;99.90;;;;;;5075053;28;20044;-81
2022/06/09 04:31:38;;;;;;;0.13;0.10;;;14.00;99.90;;;;;;5074801;28;20068;-80
2022/06/09 04:34:05;;;;;;;0.10;0.10;;;14.00;99.90;;;;;;5091239;28;20043;-80
2022/06/09 04:36:32;;;;;;;0.00;0.00;;;14.00;99.90;;;;;;5075041;28;20039;-80
2022/06/09 04:38:59;;;;;;;0.20;0.17;;;14.00;99.90;;;;;;5074801;28;20513;-80
2022/06/09 04:41:26;;;;;;;0.20;0.20;;;14.00;99.90;;;;;;5074911;28;20040;-79
2022/06/09 04:43:53;;;;;;;0.20;0.17;;;14.00;99.90;;;;;;5091455;28;20131;-80
2022/06/09 04:46:21;;;;;;;0.20;0.20;;;14.00;99.90;;;;;;5058069;28;20127;-80
2022/06/09 04:48:48;;;;;;;0.20;0.17;;;14.00;99.90;;;;;;5074192;28;20048;-80
2022/06/09 04:51:17;;;;;;;0.10;0.10;;;14.00;99.90;;;;;;5074986;28;20409;-79
2022/06/09 04:53:45;;;;;;;0.20;0.20;;;14.00;99.90;;;;;;5091511;28;20040;-80
2022/06/09 04:56:14;;;;;;;0.20;0.10;;;14.00;99.90;;;;;;5074337;28;20044;-80
2022/06/09 04:58:41;;;;;;;0.30;0.30;;;14.10;99.90;;;;;;5074717;28;20119;-80
2022/06/09 05:01:24;;;;;;;0.13;0.10;;;14.10;99.90;;;;;;5074836;28;20044;-81
2022/06/09 05:03:52;;;;;;;0.17;0.10;;;14.20;99.90;;;;;;5074500;28;20040;-80
2022/06/09 05:06:20;;;;;;;0.22;0.10;;;14.20;99.90;;;;;;5074310;28;20489;-81
2022/06/09 05:08:48;;;;;;;0.38;0.20;;;14.20;99.90;;;;;;5074280;28;20134;-80
2022/06/09 05:11:14;;;;;;;0.43;0.30;;;14.20;99.90;;;;;;5074069;28;20040;-80
2022/06/09 05:13:41;;;;;;;0.10;0.10;;;14.30;99.90;;;;;;5074633;28;20051;-80
2022/06/09 05:16:09;;;;;;;0.15;0.13;;;14.30;99.90;;;;;;5090571;28;20040;-80
2022/06/09 05:18:37;;;;;;;0.28;0.28;;;14.40;99.90;;;;;;5091167;28;20052;-81
2022/06/09 05:21:06;;;;;;;0.10;0.10;;;14.40;99.90;;;;;;5089446;28;20048;-80
2022/06/09 05:23:33;;;;;;;0.10;0.10;;;14.40;99.90;;;;;;5054265;28;20391;-80
2022/06/09 05:26:03;;;;;;;1.10;0.63;;;14.40;99.90;;;;;;5057343;28;20067;-80
2022/06/09 05:28:31;;;;;;;0.52;0.35;;;14.40;99.90;;;;;;5077736;28;20051;-80
2022/06/09 05:30:58;;;;;;;0.40;0.17;;;14.50;99.90;;;;;;5095703;28;20541;-80
2022/06/09 05:33:25;;;;;;;0.47;0.25;;;14.50;99.90;;;;;;5105365;28;20041;-80
2022/06/09 05:35:52;;;;;;;0.70;0.30;;;14.50;99.90;;;;;;5060727;28;20033;-80
2022/06/09 05:46:35;;;;;;;0.35;0.22;;;14.40;99.90;;;;;;5089809;28;20052;-80
2022/06/09 05:49:02;;;;;;;0.20;0.20;;;14.50;99.90;;;;;;5073205;28;20045;-80
2022/06/09 05:51:30;;;;;;;0.30;0.20;;;14.50;99.90;;;;;;5073524;28;20413;-80
2022/06/09 05:53:57;;;;;;;0.10;0.10;;;14.50;99.90;;;;;;5107090;28;20040;-80
2022/06/09 05:56:24;;;;;;;0.70;0.40;;;14.60;99.90;;;;;;5073465;28;20036;-81
2022/06/09 05:58:51;;;;;;;1.45;0.60;;;14.60;99.90;;;;;;5073437;28;20047;-81
2022/06/09 06:01:18;;;;;;;0.10;0.10;;;14.60;99.90;;;;;;5089742;28;20036;-80
2022/06/09 06:03:44;;;;;;;0.28;0.20;;;14.70;99.90;;;;;;5056722;28;20041;-80
2022/06/09 06:08:56;;;;;;;0.47;0.35;;;14.70;99.90;;;;;;5095403;28;20489;-80
2022/06/09 06:11:23;;;;;;;0.13;0.10;;;14.80;99.90;;;;;;5074088;28;20076;-81
2022/06/09 06:13:50;;;;;;;0.10;0.10;;;14.80;99.90;;;;;;5073401;28;20045;-81
2022/06/09 06:16:17;;;;;;;0.32;0.30;;;14.80;99.90;;;;;;5072963;28;20089;-81
2022/06/09 06:18:44;;;;;;;0.10;0.10;;;14.90;99.90;;;;;;5086814;28;20040;-81
2022/06/09 06:21:10;;;;;;;0.55;0.35;;;15.00;99.90;;;;;;5036522;28;20045;-80
2022/06/09 06:23:37;;;;;;;0.10;0.10;;;15.10;99.90;;;;;;5036895;28;20107;-80
2022/06/09 06:26:04;;;;;;;0.10;0.10;;;15.10;99.90;;;;;;5036351;28;20040;-79
2022/06/09 06:28:30;;;;;;;0.20;0.20;;;15.20;99.90;;;;;;5053152;28;20099;-81
2022/06/09 06:30:57;;;;;;;0.43;0.43;;;15.10;99.90;;;;;;5072651;28;20064;-81
2022/06/09 06:33:25;;;;;;;0.63;0.30;;;15.10;99.90;;;;;;5081003;28;20040;-81
2022/06/09 06:35:51;;;;;;;0.17;0.10;;;15.20;99.90;;;;;;5065628;28;20037;-81
2022/06/09 06:38:18;;;;;;;0.22;0.10;;;15.20;99.90;;;;;;5053185;28;20527;-80
2022/06/09 06:40:45;;;;;;;0.25;0.13;;;15.30;99.90;;;;;;5078927;28;20044;-80
2022/06/09 06:43:12;;;;;;;0.75;0.47;;;15.20;99.90;;;;;;5056458;28;20044;-80
2022/06/09 06:45:39;;;;;;;0.38;0.30;;;15.10;99.90;;;;;;5053109;28;20040;-80
2022/06/09 06:48:06;;;;;;;0.22;0.20;;;15.10;99.90;;;;;;5070776;28;20060;-80
2022/06/09 06:50:33;;;;;;;0.60;0.30;;;15.00;99.90;;;;;;5046844;28;20057;-81
2022/06/09 06:53:00;;;;;;;0.60;0.40;;;15.00;99.90;;;;;;5061485;28;20521;-80
2022/06/09 06:55:27;;;;;;;0.30;0.20;;;15.00;99.90;;;;;;5066875;28;20044;-81
2022/06/09 06:57:53;;;;;;;0.40;0.32;;;15.00;99.90;;;;;;5058826;28;20121;-81
2022/06/09 07:00:22;;;;;;;0.55;0.43;;;15.10;99.90;;;;;;5055398;28;20112;-80
2022/06/09 07:02:50;;;;;;;0.22;0.20;;;15.20;99.90;;;;;;5077704;28;20040;-80
2022/06/09 07:05:21;;;;;;;0.15;0.15;;;15.20;99.90;;;;;;5052411;28;20041;-86
2022/06/09 07:07:49;;;;;;;0.25;0.20;;;15.30;99.90;;;;;;5052743;28;20075;-87
2022/06/09 07:10:16;;;;;;;2.22;0.60;;;15.50;99.90;;;;;;5054537;28;20036;-84
2022/06/09 07:12:43;;;;;;;0.68;0.38;;;15.50;99.90;;;;;;5078898;28;20043;-84
2022/06/09 07:15:12;;;;;;;0.38;0.30;;;15.70;99.90;;;;;;5085475;28;20056;-85
2022/06/09 07:17:39;;;;;;;0.40;0.25;;;15.70;99.90;;;;;;5071883;28;20040;-84
2022/06/09 07:20:07;;;;;;;0.20;0.20;;;15.80;99.90;;;;;;5072177;28;20032;-86
2022/06/09 07:22:34;;;;;;;0.30;0.30;;;16.00;99.90;;;;;;5083952;28;20059;-84
2022/06/09 07:25:02;;;;;;;0.80;0.47;;;16.00;99.90;;;;;;5068736;28;20041;-84
2022/06/09 07:27:28;;;;;;;0.47;0.47;;;16.10;99.90;;;;;;5040741;28;20028;-84
2022/06/09 07:29:55;;;;;;;0.22;0.20;;;16.00;99.90;;;;;;5070698;28;20128;-84
2022/06/09 07:32:22;;;;;;;0.85;0.35;;;15.90;99.90;;;;;;5047006;28;20045;-86
2022/06/09 07:34:49;;;;;;;0.43;0.30;;;16.00;99.90;;;;;;5072611;28;20603;-84
2022/06/09 07:37:16;;;;;;;0.70;0.52;;;16.10;99.90;;;;;;5052182;28;20033;-83
2022/06/09 07:39:43;;;;;;;0.93;0.68;;;16.20;99.90;;;;;;5048994;28;20044;-85
2022/06/09 07:42:10;;;;;;;1.83;0.70;;;16.30;99.90;;;;;;5052606;28;20068;-86
2022/06/09 07:44:37;;;;;;;0.70;0.50;;;16.30;99.90;;;;;;5052131;28;20041;-85
2022/06/09 07:47:05;;;;;;;0.40;0.30;;;16.40;99.90;;;;;;5052064;28;20102;-83
2022/06/09 07:49:33;;;;;;;1.15;0.68;;;16.40;99.90;;;;;;5075159;28;20087;-84
2022/06/09 07:52:00;;;;;;;0.60;0.40;;;16.50;99.90;;;;;;5089123;28;20087;-86
2022/06/09 07:54:28;;;;;;;0.52;0.25;;;16.70;99.90;;;;;;5070084;28;20044;-86
2022/06/09 07:56:55;;;;;;;0.63;0.45;;;16.70;99.90;;;;;;5074072;28;20102;-85
2022/06/09 07:59:21;;;;;;;1.02;0.63;;;16.80;99.90;;;;;;5074824;28;20040;-84
2022/06/09 08:01:48;;;;;;;0.40;0.30;;;16.80;99.90;;;;;;5066264;28;20044;-86
2022/06/09 08:04:16;;;;;;;1.17;0.60;;;16.80;99.90;;;;;;5055774;28;20037;-84
2022/06/09 08:06:42;;;;;;;1.10;0.40;;;16.90;99.90;;;;;;5055898;28;20132;-84
2022/06/09 08:09:09;;;;;;;0.73;0.50;;;17.00;99.90;;;;;;5072219;28;20124;-84
2022/06/09 08:11:37;;;;;;;0.47;0.38;;;17.00;99.90;;;;;;5038928;28;20044;-86
2022/06/09 08:14:05;;;;;;;0.95;0.45;;;17.00;99.90;;;;;;5056281;28;20040;-86
2022/06/09 08:16:33;;;;;;;0.77;0.47;;;17.00;99.90;;;;;;5055693;28;20036;-84
2022/06/09 08:19:00;;;;;;;0.70;0.57;;;17.20;99.90;;;;;;5055551;28;20521;-84
2022/06/09 08:21:27;;;;;;;0.88;0.50;;;17.20;99.90;;;;;;5066715;28;20040;-84
2022/06/09 08:23:55;;;;;;;0.93;0.60;;;17.20;99.90;;;;;;5043304;28;20047;-84
2022/06/09 08:26:22;;;;;;;0.73;0.55;;;17.20;99.90;;;;;;5075268;28;20524;-85
2022/06/09 08:28:49;;;;;;;0.75;0.60;;;17.30;99.90;;;;;;5058651;28;20045;-84
2022/06/09 08:31:16;;;;;;;1.13;0.50;;;17.40;99.90;;;;;;5075726;28;20048;-87
2022/06/09 08:33:42;;;;;;;1.27;0.75;;;17.40;99.90;;;;;;5058799;28;20626;-84
2022/06/09 08:36:10;;;;;;;1.40;0.60;;;17.30;99.90;;;;;;5042673;28;20502;-86
2022/06/09 08:38:37;;;;;;;0.40;0.40;;;17.40;99.90;;;;;;5091671;28;20051;-84
2022/06/09 08:41:27;;;;;;;0.30;0.30;;;17.40;99.90;;;;;;5058576;28;20141;-84
2022/06/09 08:43:57;;;;;;;0.55;0.43;;;17.60;99.90;;;;;;5075782;28;20068;-86
2022/06/09 08:46:38;;;;;;;0.32;0.20;;;17.70;99.90;;;;;;5074804;28;20131;-84
2022/06/09 08:49:35;;;;;;;0.40;0.40;;;17.80;99.90;;;;;;5075157;28;20074;-86
2022/06/09 08:52:25;;;;;;;0.60;0.50;;;18.00;99.90;;;;;;5091655;28;20049;-88
2022/06/09 08:54:55;;;;;;;0.55;0.45;;;18.20;99.90;;;;;;5075665;28;20040;-84
2022/06/09 08:57:27;;;;;;;0.45;0.38;;;18.20;99.90;;;;;;5075273;28;20085;-86
2022/06/09 08:59:58;;;;;;;0.47;0.20;;;18.20;99.90;;;;;;5091145;28;20443;-84
2022/06/09 09:02:31;;;;;;;2.63;0.55;;;18.10;99.90;;;;;;5074667;28;20044;-84
2022/06/09 09:05:16;;;;;;;0.43;0.20;;;18.20;99.90;;;;;;5074525;28;20401;-84
2022/06/09 09:07:47;;;;;;;0.73;0.45;;;18.30;99.90;;;;;;5074274;28;20052;-85
2022/06/09 09:10:22;;;;;;;1.00;0.55;;;18.40;99.90;;;;;;5074405;28;20090;-86
2022/06/09 09:13:15;;;;;;;0.40;0.35;;;18.60;99.90;;;;;;5074622;28;20040;-84
2022/06/09 09:15:46;;;;;;;0.22;0.22;;;18.60;99.90;;;;;;5074214;28;20047;-85
2022/06/09 09:18:15;;;;;;;1.23;0.30;;;18.50;99.90;;;;;;5074209;28;20717;-84
2022/06/09 09:21:09;;;;;;;0.52;0.28;;;18.40;99.90;;;;;;5073771;28;20138;-84
2022/06/09 09:23:57;;;;;;;0.28;0.28;;;18.40;99.90;;;;;;5074037;28;20123;-84
2022/06/09 09:26:44;;;;;;;0.30;0.20;;;18.70;99.90;;;;;;5074542;28;20098;-84
2022/06/09 09:29:18;;;;;;;0.25;0.20;;;18.80;99.90;;;;;;5073420;28;20047;-85
2022/06/09 09:31:53;;;;;;;0.55;0.40;;;18.80;99.90;;;;;;5073578;28;20083;-85
2022/06/09 09:34:25;;;;;;;0.20;0.20;;;18.80;99.90;;;;;;5090662;28;20476;-83
2022/06/09 09:36:57;;;;;;;0.35;0.20;;;18.90;99.90;;;;;;5073669;28;20101;-84
2022/06/09 09:39:40;;;;;;;0.15;0.15;;;19.00;99.90;;;;;;5090673;28;20063;-83
2022/06/09 09:42:14;;;;;;;0.22;0.10;;;19.20;99.90;;;;;;5090619;28;20052;-85
2022/06/09 09:44:57;;;;;;;0.55;0.40;;;19.40;99.90;;;;;;5073663;28;20045;-85
2022/06/09 09:47:26;;;;;;;0.32;0.20;;;19.50;99.90;;;;;;5079043;28;20386;-85
2022/06/09 09:50:07;;;;;;;0.10;0.10;;;19.70;99.90;;;;;;5053405;28;20061;-85
2022/06/09 09:52:44;;;;;;;0.15;0.15;;;19.80;99.90;;;;;;5069913;28;20402;-85
2022/06/09 09:55:32;;;;;;;0.10;0.10;;;19.90;99.90;;;;;;5070536;28;20123;-85
2022/06/09 09:58:18;;;;;;;0.10;0.10;;;20.10;99.90;;;;;;5070024;28;20086;-85
2022/06/09 10:00:48;;;;;;;0.10;0.10;;;20.10;99.90;;;;;;5053320;28;20052;-86
2022/06/09 10:09:27;;;;;;;0.10;0.10;;;20.20;99.90;;;;;;5089993;28;20413;-83
2022/06/09 10:11:59;;;;;;;0.17;0.17;;;20.00;99.90;;;;;;5085617;28;20043;-85
2022/06/09 10:14:33;;;;;;;0.20;0.13;;;19.80;99.90;;;;;;5073283;28;20493;-85
2022/06/09 10:17:01;;;;;;;0.10;0.10;;;19.80;99.90;;;;;;5073150;28;20037;-85
2022/06/09 10:19:31;;;;;;;0.30;0.30;;;19.90;99.90;;;;;;5056891;28;20043;-85
2022/06/09 10:22:01;;;;;;;0.10;0.10;;;20.00;99.90;;;;;;5072983;28;20455;-86
2022/06/09 10:24:58;;;;;;;0.55;0.30;;;20.10;99.90;;;;;;5073190;28;20040;-85
2022/06/09 10:27:32;;;;;;;0.08;0.08;;;20.10;99.90;;;;;;5073105;28;20047;-85
2022/06/09 10:30:17;;;;;;;0.00;0.00;;;19.80;99.90;;;;;;5072981;28;20044;-85
2022/06/09 10:33:02;;;;;;;0.17;0.17;;;19.50;99.90;;;;;;5073021;28;20047;-85
2022/06/09 10:35:43;;;;;;;0.20;0.20;;;19.30;99.90;;;;;;5073105;28;20401;-86
2022/06/09 10:38:36;;;;;;;0.10;0.10;;;19.40;99.90;;;;;;5073009;28;20047;-85
2022/06/09 10:41:09;;;;;;;0.30;0.30;;;19.80;99.90;;;;;;5072977;28;20049;-85
2022/06/09 10:44:00;;;;;;;0.13;0.13;;;19.80;99.90;;;;;;5072739;28;20080;-84
2022/06/09 10:55:14;;;;;;;0.85;0.20;;;20.00;99.90;;;;;;5072420;28;20098;-86
2022/06/09 10:55:58;;;;;;;0.20;0.20;;;20.30;99.90;;;;;;5103914;28;20040;-86
2022/06/09 10:58:33;;;;;;;0.20;0.20;;;20.60;99.90;;;;;;5055736;28;20044;-86
2022/06/09 11:01:00;;;;;;;0.75;0.40;;;20.70;99.90;;;;;;5061695;28;20040;-87
2022/06/09 11:03:39;;;;;;;0.13;0.13;;;20.80;99.90;;;;;;5089722;28;20401;-86
2022/06/09 11:06:06;;;;;;;0.10;0.10;;;21.00;99.90;;;;;;5088701;28;20075;-85
2022/06/09 11:09:11;;;;;;;0.22;0.20;;;21.00;99.90;;;;;;5089339;28;20083;-85
2022/06/09 11:11:51;;;;;;;0.20;0.20;;;20.60;99.90;;;;;;5072917;28;20040;-84
2022/06/09 11:14:21;;;;;;;0.15;0.15;;;20.70;99.90;;;;;;5089332;28;20033;-85
2022/06/09 11:17:13;;;;;;;0.20;0.20;;;20.50;99.90;;;;;;5072695;28;20143;-85
2022/06/09 11:20:21;;;;;;;0.20;0.20;;;20.50;99.90;;;;;;5072448;28;20391;-84
2022/06/09 11:22:54;;;;;;;0.10;0.10;;;20.60;99.90;;;;;;5072305;28;20044;-86
2022/06/09 11:25:26;;;;;;;0.10;0.10;;;20.60;99.90;;;;;;5089476;28;20041;-85
2022/06/09 11:28:28;;;;;;;0.20;0.20;;;20.80;99.90;;;;;;5071861;28;20048;-85
2022/06/09 11:31:26;;;;;;;0.20;0.10;;;20.90;99.90;;;;;;5064346;28;20067;-86
2022/06/09 11:34:19;;;;;;;0.10;0.10;;;21.10;99.90;;;;;;5092825;28;20048;-85
2022/06/09 11:37:24;;;;;;;0.45;0.25;;;21.10;99.90;;;;;;5076679;28;20044;-85
2022/06/09 11:40:15;;;;;;;0.20;0.20;;;21.30;99.90;;;;;;5075925;28;20043;-85
2022/06/09 11:43:04;;;;;;;0.10;0.10;;;21.30;99.90;;;;;;5076103;28;20067;-85
2022/06/09 11:45:50;;;;;;;0.20;0.20;;;21.50;99.90;;;;;;5076236;28;20075;-85
2022/06/09 11:48:37;;;;;;;;;;;21.60;99.90;;;;;;5076566;28;20397;-85
2022/06/09 11:51:04;;;;;;;0.10;0.10;;;21.60;99.90;;;;;;5068184;28;19931;-85
2022/06/09 11:53:40;;;;;;;0.10;0.10;;;21.60;99.90;;;;;;5076154;28;20040;-85
2022/06/09 11:56:40;;;;;;;1.45;0.30;;;21.30;99.90;;;;;;5075708;28;20468;-85
2022/06/09 11:59:49;;;;;;;0.20;0.20;;;21.50;99.90;;;;;;5075319;28;20489;-85
2022/06/09 12:02:35;;;;;;;0.10;0.10;;;21.20;99.90;;;;;;5075136;28;20387;-85
2022/06/09 12:05:26;;;;;;;0.15;0.15;;;21.30;99.90;;;;;;5091970;28;20056;-85
2022/06/09 12:08:12;;;;;;;0.10;0.10;;;21.50;99.90;;;;;;5075239;28;20051;-85
2022/06/09 12:10:57;;;;;;;0.10;0.10;;;21.50;99.90;;;;;;5075826;28;20032;-84
2022/06/09 12:13:27;;;;;;;0.17;0.17;;;21.70;99.90;;;;;;5075915;28;20078;-85
2022/06/09 12:16:05;;;;;;;0.20;0.20;;;21.70;99.90;;;;;;5092302;28;20035;-85
2022/06/09 12:18:40;;;;;;;0.03;0.03;;;21.60;99.90;;;;;;5075717;28;20127;-85
2022/06/09 12:21:14;;;;;;;0.10;0.10;;;21.60;99.90;;;;;;5075064;28;20041;-84
2022/06/09 12:23:43;;;;;;;0.10;0.10;;;21.60;99.90;;;;;;5075353;28;20044;-85
2022/06/09 12:26:09;;;;;;;0.10;0.10;;;21.70;99.90;;;;;;5075546;28;20040;-85
2022/06/09 12:28:57;;;;;;;0.10;0.10;;;21.70;99.90;;;;;;5075350;28;20382;-85
2022/06/09 12:31:32;;;;;;;0.25;0.17;;;21.60;99.90;;;;;;5075165;28;20489;-84
2022/06/09 12:34:03;;;;;;;0.45;0.30;;;21.60;99.90;;;;;;5092056;28;20043;-85
2022/06/09 12:36:51;;;;;;;0.20;0.20;;;21.50;99.90;;;;;;5075484;28;20040;-85
2022/06/09 12:39:23;;;;;;;0.10;0.10;;;21.40;99.90;;;;;;5075221;28;20040;-85
2022/06/09 12:41:55;;;;;;;0.30;0.30;;;21.60;99.90;;;;;;5091957;28;20485;-85
2022/06/09 12:44:25;;;;;;;0.10;0.10;;;21.50;99.90;;;;;;5074090;28;20079;-85
2022/06/09 12:46:55;;;;;;;0.17;0.10;;;21.50;99.90;;;;;;5075029;28;20044;-85
2022/06/09 12:49:44;;;;;;;0.10;0.10;;;21.50;99.90;;;;;;5091075;28;20127;-85
2022/06/09 12:52:28;;;;;;;0.10;0.10;;;21.50;99.90;;;;;;5091577;28;20186;-84
2022/06/09 12:54:57;;;;;;;0.10;0.10;;;21.30;99.90;;;;;;5075228;28;20048;-85
2022/06/09 12:57:31;;;;;;;0.20;0.20;;;21.30;99.90;;;;;;5091282;28;20481;-85
2022/06/09 13:00:08;;;;;;;0.10;0.10;;;21.30;99.90;;;;;;5091469;28;20101;-85
2022/06/09 13:02:40;;;;;;;0.10;0.10;;;21.40;99.90;;;;;;5074591;28;20044;-85
2022/06/09 13:05:13;;;;;;;0.08;0.08;;;21.40;99.90;;;;;;5074344;28;20489;-85
2022/06/09 13:07:50;;;;;;;0.10;0.10;;;21.50;99.90;;;;;;5075038;28;20040;-85
2022/06/09 13:10:29;;;;;;;0.10;0.10;;;21.50;99.90;;;;;;5074516;28;20047;-85
2022/06/09 13:13:02;;;;;;;0.10;0.10;;;21.60;99.90;;;;;;5074526;28;20529;-86
2022/06/09 13:15:47;;;;;;;0.20;0.20;;;21.50;99.90;;;;;;5074952;28;20037;-85
2022/06/09 13:18:21;;;;;;;0.20;0.20;;;21.50;99.90;;;;;;5074223;28;20044;-85
2022/06/09 13:21:13;;;;;;;0.17;0.17;;;21.40;99.90;;;;;;5074328;28;20041;-85
2022/06/09 13:23:42;;;;;;;0.20;0.20;;;21.40;99.90;;;;;;5074135;28;20044;-85
2022/06/09 13:26:15;;;;;;;0.10;0.10;;;21.50;99.90;;;;;;5091288;28;20135;-86
2022/06/09 13:28:51;;;;;;;0.20;0.20;;;21.50;99.90;;;;;;5090731;28;20496;-86
2022/06/09 13:31:42;;;;;;;0.20;0.20;;;21.50;99.90;;;;;;5074088;28;20046;-86
2022/06/09 13:34:12;;;;;;;0.17;0.17;;;21.50;99.90;;;;;;5074009;28;20077;-86
2022/06/09 13:36:56;;;;;;;0.10;0.10;;;21.40;99.90;;;;;;5074522;28;20560;-86
2022/06/09 13:39:29;;;;;;;0.10;0.10;;;21.30;99.90;;;;;;5074462;28;20072;-86
2022/06/09 13:42:01;;;;;;;0.20;0.20;;;21.20;99.90;;;;;;5074780;28;20036;-85